Terminal Aerodrome Forecast
Issued by NWS Knoxville/Tri Cities, TN

Home | Current Version | Previous Version | Text Only | Print | Product List | Glossary On
Versions: 1 2 3 4 5 6 7 8 9 10 11 12 13 14 15 16 17 18 19 20 21 22 23 24 25 26 27 28 29
000
FTUS44 KMRX 271128
TAFTYS
TAF
KTYS 271128Z 2712/2812 26009KT P6SM SCT025 BKN040
      TEMPO 2712/2714 6SM -SN BR BKN025
     FM271400 31010G18KT P6SM BKN040
     FM280000 34006KT P6SM BKN035=

USA.gov is the U.S. government's official web portal to all federal, state and local government web resources and services.